createdAt,value
2019-04-27T00:00:15.007Z,8.79
2019-04-27T00:02:55.818Z,8.81
2019-04-27T00:05:37.910Z,8.79
2019-04-27T00:08:18.631Z,8.78
2019-04-27T00:11:15.601Z,8.78
2019-04-27T00:13:46.166Z,8.82
2019-04-27T00:16:40.483Z,8.79
2019-04-27T00:19:43.823Z,8.84
2019-04-27T00:22:24.135Z,8.87
2019-04-27T00:24:53.238Z,8.87
2019-04-27T00:27:23.441Z,8.89
2019-04-27T00:29:53.551Z,8.89
2019-04-27T00:32:23.113Z,8.88
2019-04-27T00:34:53.246Z,8.88
2019-04-27T00:37:30.112Z,8.88
2019-04-27T00:40:06.623Z,8.91
2019-04-27T00:42:35.824Z,8.93
2019-04-27T00:45:05.634Z,8.90
2019-04-27T00:47:35.082Z,8.87
2019-04-27T00:50:04.464Z,8.89
2019-04-27T00:52:35.368Z,8.85
2019-04-27T00:55:04.530Z,8.84
2019-04-27T00:57:43.615Z,8.88
2019-04-27T01:00:30.580Z,8.92
2019-04-27T01:03:07.804Z,8.88
2019-04-27T01:05:36.862Z,8.90
2019-04-27T01:08:05.657Z,8.91
2019-04-27T01:10:34.533Z,8.88
2019-04-27T01:13:03.906Z,8.86
2019-04-27T01:15:33.955Z,8.86
2019-04-27T01:18:12.335Z,8.90
2019-04-27T01:20:33.844Z,8.90
2019-04-27T01:23:02.671Z,8.89
2019-04-27T01:25:48.848Z,8.95
2019-04-27T01:28:29.087Z,8.97
2019-04-27T01:31:02.488Z,8.92
2019-04-27T01:33:33.927Z,8.95
2019-04-27T01:36:02.635Z,8.95
2019-04-27T01:38:31.358Z,9.01
2019-04-27T01:41:00.571Z,8.95
2019-04-27T01:43:30.273Z,8.88
2019-04-27T01:46:01.028Z,8.89
2019-04-27T01:48:30.570Z,8.93
2019-04-27T01:51:00.687Z,8.99
2019-04-27T01:53:30.468Z,8.98
2019-04-27T01:55:59.463Z,8.96
2019-04-27T01:58:29.291Z,9.03
2019-04-27T02:01:16.294Z,9.06
2019-04-27T02:04:02.687Z,9.05
2019-04-27T02:06:31.601Z,9.08
2019-04-27T02:09:00.413Z,9.08
2019-04-27T02:11:29.256Z,9.06
2019-04-27T02:13:59.429Z,9.06
2019-04-27T02:16:30.348Z,9.05
2019-04-27T02:18:58.900Z,9.06
2019-04-27T02:21:29.453Z,9.06
2019-04-27T02:23:59.798Z,9.04
2019-04-27T02:26:29.898Z,9.04
2019-04-27T02:29:09.517Z,8.95
2019-04-27T02:32:06.362Z,8.97
2019-04-27T02:34:42.807Z,8.96
2019-04-27T02:37:11.842Z,8.88
2019-04-27T02:39:42.389Z,8.90
2019-04-27T02:42:11.548Z,8.83
2019-04-27T02:44:41.161Z,8.83
2019-04-27T02:47:12.054Z,8.81
2019-04-27T02:49:40.940Z,8.83
2019-04-27T02:52:31.515Z,8.80
2019-04-27T02:55:00.527Z,8.82
2019-04-27T02:57:30.089Z,8.81
2019-04-27T03:00:00.005Z,8.82
2019-04-27T03:02:40.410Z,8.80
2019-04-27T03:05:10.900Z,8.72
2019-04-27T03:07:42.877Z,8.71
2019-04-27T03:10:11.485Z,8.60
2019-04-27T03:12:45.786Z,8.61
2019-04-27T03:15:32.334Z,8.57
2019-04-27T03:18:15.199Z,8.63
2019-04-27T03:20:56.161Z,8.58
2019-04-27T03:23:25.100Z,8.61
2019-04-27T03:26:21.833Z,8.53
2019-04-27T03:28:50.801Z,8.57
2019-04-27T03:31:21.510Z,8.51
2019-04-27T03:33:57.945Z,8.58
2019-04-27T03:36:21.644Z,8.59
2019-04-27T03:38:50.663Z,8.55
2019-04-27T03:41:19.442Z,8.53
2019-04-27T03:43:50.323Z,8.56
2019-04-27T03:46:20.407Z,8.60
2019-04-27T03:48:49.877Z,8.61
2019-04-27T03:51:35.038Z,8.58
2019-04-27T03:54:22.298Z,8.60
2019-04-27T03:57:02.396Z,8.57
2019-04-27T03:59:51.865Z,8.56
2019-04-27T04:02:20.668Z,8.55
2019-04-27T04:04:50.696Z,8.59
2019-04-27T04:07:19.866Z,8.63
2019-04-27T04:09:50.316Z,8.60
2019-04-27T04:12:46.019Z,8.52
2019-04-27T04:15:25.099Z,8.49
2019-04-27T04:17:53.816Z,8.53
2019-04-27T04:20:22.652Z,8.49
2019-04-27T04:22:51.657Z,8.49
2019-04-27T04:25:20.379Z,8.39
2019-04-27T04:27:52.257Z,8.47
2019-04-27T04:30:21.235Z,8.47
2019-04-27T04:32:51.999Z,8.44
2019-04-27T04:35:22.212Z,8.39
2019-04-27T04:37:52.928Z,8.37
2019-04-27T04:40:25.604Z,8.35
2019-04-27T04:43:04.085Z,8.36
2019-04-27T04:45:52.795Z,8.41
2019-04-27T04:48:21.792Z,8.43
2019-04-27T04:50:50.613Z,8.41
2019-04-27T04:53:20.567Z,8.35
2019-04-27T04:55:49.647Z,8.45
2019-04-27T04:58:21.002Z,8.41
2019-04-27T05:00:50.164Z,8.44
2019-04-27T05:03:22.173Z,8.41
2019-04-27T05:05:51.114Z,8.46
2019-04-27T05:08:19.906Z,8.44
2019-04-27T05:10:49.758Z,8.51
2019-04-27T05:13:19.305Z,8.52
2019-04-27T05:15:48.832Z,8.52
2019-04-27T05:18:19.138Z,8.64
2019-04-27T05:20:54.697Z,8.56
2019-04-27T05:23:23.618Z,8.57
2019-04-27T05:25:52.405Z,8.56
2019-04-27T05:28:23.953Z,8.60
2019-04-27T05:30:52.778Z,8.58
2019-04-27T05:33:21.486Z,8.58
2019-04-27T05:35:50.281Z,8.57
2019-04-27T05:38:19.485Z,8.52
2019-04-27T05:40:49.991Z,8.61
2019-04-27T05:43:20.613Z,8.52
2019-04-27T05:46:44.698Z,8.51
2019-04-27T05:49:23.403Z,8.59
2019-04-27T05:51:52.218Z,8.55
2019-04-27T05:54:21.137Z,8.59
2019-04-27T05:56:49.968Z,8.62
2019-04-27T05:59:19.792Z,8.53
2019-04-27T06:01:51.844Z,8.61
2019-04-27T06:04:20.776Z,8.66
2019-04-27T06:06:50.000Z,8.57
2019-04-27T06:09:19.530Z,8.69
2019-04-27T06:11:50.607Z,8.75
2019-04-27T06:14:19.346Z,8.81
2019-04-27T06:16:49.381Z,8.86
2019-04-27T06:21:54.721Z,9.05
2019-04-27T06:24:25.879Z,9.26
2019-04-27T06:26:54.862Z,9.32
2019-04-27T06:29:24.001Z,9.40
2019-04-27T06:31:52.951Z,9.47
2019-04-27T06:34:21.813Z,9.52
2019-04-27T06:36:50.752Z,9.39
2019-04-27T06:39:22.764Z,9.40
2019-04-27T06:41:51.477Z,9.44
2019-04-27T06:44:22.434Z,9.44
2019-04-27T06:46:51.421Z,9.53
2019-04-27T06:49:20.299Z,9.59
2019-04-27T06:51:51.253Z,9.62
2019-04-27T06:54:21.426Z,9.81
2019-04-27T06:56:53.647Z,10.00
2019-04-27T07:02:50.325Z,10.14
2019-04-27T07:05:20.427Z,10.15
2019-04-27T07:07:49.441Z,10.09
2019-04-27T07:10:18.689Z,10.09
2019-04-27T07:12:49.110Z,10.30
2019-04-27T07:15:20.170Z,10.45
2019-04-27T07:17:48.978Z,10.57
2019-04-27T07:20:19.467Z,10.42
2019-04-27T07:22:49.673Z,10.53
2019-04-27T07:25:18.940Z,10.53
2019-04-27T07:27:49.398Z,10.55
2019-04-27T07:30:19.099Z,10.91
2019-04-27T07:32:49.077Z,11.08
2019-04-27T07:35:25.003Z,11.28
2019-04-27T07:37:56.423Z,11.75
2019-04-27T07:40:25.257Z,11.84
2019-04-27T07:42:59.721Z,12.06
2019-04-27T07:45:32.898Z,12.36
2019-04-27T07:48:04.857Z,12.63
2019-04-27T07:50:34.805Z,12.37
2019-04-27T07:53:14.138Z,11.82
2019-04-27T07:55:43.227Z,11.48
2019-04-27T07:58:14.231Z,11.09
2019-04-27T08:00:43.068Z,11.20
2019-04-27T08:03:12.044Z,11.21
2019-04-27T08:05:42.456Z,11.03
2019-04-27T08:08:11.465Z,11.56
2019-04-27T08:10:40.486Z,11.56
2019-04-27T08:13:09.639Z,11.39
2019-04-27T08:15:39.624Z,11.35
2019-04-27T08:18:09.061Z,11.24
2019-04-27T08:20:39.082Z,11.10
2019-04-27T08:23:09.808Z,10.98
2019-04-27T08:25:40.848Z,10.90
2019-04-27T08:28:28.779Z,10.91
2019-04-27T08:31:29.884Z,10.96
2019-04-27T08:34:03.544Z,11.05
2019-04-27T08:36:36.450Z,11.03
2019-04-27T08:39:09.249Z,10.92
2019-04-27T08:41:40.024Z,10.86
2019-04-27T08:44:12.266Z,10.91
2019-04-27T08:46:47.132Z,11.27
2019-04-27T08:49:18.911Z,11.29
2019-04-27T08:51:57.171Z,11.31
2019-04-27T08:54:19.322Z,11.57
2019-04-27T08:56:49.490Z,11.57
2019-04-27T08:59:19.459Z,11.65
2019-04-27T09:01:49.308Z,11.91
2019-04-27T09:04:20.107Z,12.30
2019-04-27T09:06:59.769Z,12.74
2019-04-27T09:14:47.215Z,14.02
2019-04-27T09:17:20.881Z,13.98
2019-04-27T09:20:00.976Z,13.43
2019-04-27T09:22:29.778Z,13.58
2019-04-27T09:24:59.510Z,13.44
2019-04-27T09:27:29.003Z,13.18
2019-04-27T09:29:59.076Z,13.11
2019-04-27T09:32:31.010Z,13.14
2019-04-27T09:34:59.773Z,13.32
2019-04-27T09:37:28.612Z,13.18
2019-04-27T09:39:58.779Z,13.86
2019-04-27T09:42:27.699Z,14.02
2019-04-27T09:44:57.261Z,13.88
2019-04-27T09:47:26.640Z,14.01
2019-04-27T09:49:56.533Z,14.17
2019-04-27T09:52:26.972Z,14.06
2019-04-27T09:54:56.081Z,14.28
2019-04-27T09:57:25.967Z,14.13
2019-04-27T09:59:56.446Z,13.97
2019-04-27T10:02:26.979Z,14.31
2019-04-27T10:04:56.558Z,14.44
2019-04-27T10:07:26.959Z,14.53
2019-04-27T10:09:56.705Z,14.08
2019-04-27T10:12:26.138Z,13.76
2019-04-27T10:14:56.021Z,14.07
2019-04-27T10:17:24.739Z,14.13
2019-04-27T10:19:53.459Z,14.40
2019-04-27T10:22:22.616Z,14.08
2019-04-27T10:24:51.578Z,13.95
2019-04-27T10:27:20.341Z,13.95
2019-04-27T10:29:49.649Z,14.02
2019-04-27T10:32:18.511Z,14.07
2019-04-27T10:34:47.388Z,14.24
2019-04-27T10:37:16.233Z,14.09
2019-04-27T10:39:45.984Z,14.27
2019-04-27T10:42:15.228Z,14.46
2019-04-27T10:44:45.991Z,14.38
2019-04-27T10:47:15.880Z,14.31
2019-04-27T10:49:48.007Z,14.26
2019-04-27T10:52:15.384Z,14.69
2019-04-27T10:54:59.279Z,14.87
2019-04-27T10:57:39.358Z,14.82
2019-04-27T11:00:11.613Z,15.59
2019-04-27T11:02:42.470Z,15.89
2019-04-27T11:05:23.313Z,15.78
2019-04-27T11:07:52.576Z,15.66
2019-04-27T11:10:21.790Z,15.93
2019-04-27T11:12:50.652Z,16.12
2019-04-27T11:15:19.627Z,16.20
2019-04-27T11:17:48.525Z,16.43
2019-04-27T11:20:27.725Z,16.33
2019-04-27T11:23:07.179Z,16.26
2019-04-27T11:25:29.304Z,16.05
2019-04-27T11:27:58.077Z,16.16
2019-04-27T11:30:27.506Z,16.28
2019-04-27T11:32:58.988Z,16.35
2019-04-27T11:35:46.963Z,16.53
2019-04-27T11:38:17.020Z,16.56
2019-04-27T11:40:46.610Z,16.57
2019-04-27T11:43:16.244Z,16.77
2019-04-27T11:45:45.790Z,16.73
2019-04-27T11:48:16.194Z,16.69
2019-04-27T11:50:46.139Z,16.45
2019-04-27T11:53:22.771Z,16.39
2019-04-27T11:55:46.250Z,16.62
2019-04-27T11:58:18.202Z,16.68
2019-04-27T12:00:47.317Z,16.65
2019-04-27T12:03:16.654Z,16.99
2019-04-27T12:05:46.457Z,17.15
2019-04-27T12:08:16.218Z,16.92
2019-04-27T12:10:46.351Z,16.99
2019-04-27T12:13:16.377Z,17.10
2019-04-27T12:15:46.467Z,16.99
2019-04-27T12:18:15.340Z,17.20
2019-04-27T12:20:45.777Z,17.32
2019-04-27T12:23:16.496Z,17.48
2019-04-27T12:25:46.247Z,17.32
2019-04-27T12:28:23.180Z,17.54
2019-04-27T12:31:09.997Z,17.39
2019-04-27T12:33:39.507Z,17.34
2019-04-27T12:36:08.560Z,17.44
2019-04-27T12:38:37.591Z,17.41
2019-04-27T12:41:10.802Z,17.05
2019-04-27T12:43:40.703Z,16.42
2019-04-27T12:46:09.970Z,16.29
2019-04-27T12:48:40.420Z,16.26
2019-04-27T12:51:09.624Z,16.12
2019-04-27T12:54:12.880Z,15.80
2019-04-27T12:57:03.659Z,15.36
2019-04-27T12:59:50.249Z,14.72
2019-04-27T13:02:21.020Z,14.45
2019-04-27T13:04:49.880Z,14.27
2019-04-27T13:07:18.648Z,14.22
2019-04-27T13:09:47.829Z,14.43
2019-04-27T13:12:16.644Z,14.65
2019-04-27T13:14:45.805Z,14.68
2019-04-27T13:17:17.735Z,14.80
2019-04-27T13:19:46.579Z,14.79
2019-04-27T13:22:16.528Z,14.91
2019-04-27T13:24:45.931Z,14.75
2019-04-27T13:27:16.575Z,14.80
2019-04-27T13:29:46.663Z,14.90
2019-04-27T13:32:16.448Z,15.12
2019-04-27T13:34:56.677Z,15.12
2019-04-27T13:37:37.105Z,15.29
2019-04-27T13:40:09.643Z,15.47
2019-04-27T13:42:44.711Z,15.81
2019-04-27T13:45:21.343Z,15.88
2019-04-27T13:47:56.754Z,16.03
2019-04-27T13:50:39.445Z,15.90
2019-04-27T13:53:08.549Z,15.80
2019-04-27T13:55:37.262Z,15.97
2019-04-27T13:58:06.080Z,16.13
2019-04-27T14:00:37.767Z,16.26
2019-04-27T14:03:05.530Z,16.31
2019-04-27T14:05:34.282Z,16.31
2019-04-27T14:08:03.123Z,16.42
2019-04-27T14:10:32.259Z,16.41
2019-04-27T14:13:01.136Z,16.37
2019-04-27T14:15:29.964Z,16.24
2019-04-27T14:17:59.167Z,16.36
2019-04-27T14:20:28.745Z,16.40
2019-04-27T14:23:12.476Z,16.31
2019-04-27T14:25:41.789Z,16.19
2019-04-27T14:28:10.553Z,15.94
2019-04-27T14:30:40.053Z,15.87
2019-04-27T14:33:09.065Z,15.82
2019-04-27T14:35:37.942Z,15.62
2019-04-27T14:38:06.651Z,15.47
2019-04-27T14:40:35.431Z,15.12
2019-04-27T14:43:04.258Z,14.94
2019-04-27T14:45:33.044Z,14.55
2019-04-27T14:48:01.768Z,14.40
2019-04-27T14:50:30.526Z,14.51
2019-04-27T14:52:59.335Z,14.83
2019-04-27T14:55:29.983Z,15.20
2019-04-27T14:57:58.717Z,15.51
2019-04-27T15:00:28.772Z,15.75
2019-04-27T15:02:59.130Z,15.93
2019-04-27T15:05:28.196Z,16.18
2019-04-27T15:07:56.984Z,16.33
2019-04-27T15:10:27.091Z,16.49
2019-04-27T15:12:56.518Z,16.43
2019-04-27T15:15:28.340Z,16.30
2019-04-27T15:17:57.574Z,16.25
2019-04-27T15:20:32.883Z,16.04
2019-04-27T15:23:01.622Z,15.85
2019-04-27T15:25:35.073Z,15.89
2019-04-27T15:28:03.301Z,15.89
2019-04-27T15:30:50.055Z,15.69
2019-04-27T15:33:40.901Z,15.71
2019-04-27T15:36:14.699Z,15.63
2019-04-27T15:38:47.706Z,15.64
2019-04-27T15:41:24.324Z,15.58
2019-04-27T15:43:53.194Z,15.53
2019-04-27T15:46:22.138Z,15.41
2019-04-27T15:48:54.137Z,15.22
2019-04-27T15:51:21.892Z,15.15
2019-04-27T15:53:53.823Z,15.09
2019-04-27T15:56:22.202Z,15.05
2019-04-27T15:58:51.018Z,14.94
2019-04-27T16:01:19.806Z,14.85
2019-04-27T16:03:51.888Z,14.74
2019-04-27T16:06:19.714Z,14.70
2019-04-27T16:08:52.518Z,14.69
2019-04-27T16:11:21.340Z,14.65
2019-04-27T16:13:50.480Z,14.64
2019-04-27T16:16:19.666Z,14.67
2019-04-27T16:18:49.118Z,14.66
2019-04-27T16:21:20.037Z,14.56
2019-04-27T16:23:48.514Z,14.59
2019-04-27T16:26:18.328Z,14.60
2019-04-27T16:28:52.928Z,14.57
2019-04-27T16:31:18.676Z,14.49
2019-04-27T16:33:49.712Z,14.49
2019-04-27T16:36:19.726Z,14.43
2019-04-27T16:39:03.597Z,14.36
2019-04-27T16:41:32.977Z,14.36
2019-04-27T16:44:06.984Z,14.39
2019-04-27T16:46:34.828Z,14.30
2019-04-27T16:49:07.260Z,14.32
2019-04-27T16:51:36.851Z,14.32
2019-04-27T16:54:11.104Z,14.28
2019-04-27T16:56:38.057Z,14.36
2019-04-27T17:01:40.033Z,14.43
2019-04-27T17:04:13.525Z,14.48
2019-04-27T17:06:45.993Z,14.51
2019-04-27T17:09:11.778Z,14.59
2019-04-27T17:11:43.848Z,14.41
2019-04-27T17:12:40.260Z,14.39
2019-04-27T17:14:28.985Z,14.33
2019-04-27T17:17:17.823Z,14.32
2019-04-27T17:19:51.928Z,14.27
2019-04-27T17:22:21.009Z,14.05
2019-04-27T17:24:50.130Z,14.03
2019-04-27T17:27:28.495Z,14.02
2019-04-27T17:29:58.452Z,14.00
2019-04-27T17:32:33.490Z,13.92
2019-04-27T17:35:04.996Z,13.90
2019-04-27T17:37:33.773Z,13.88
2019-04-27T17:40:01.511Z,13.86
2019-04-27T17:42:30.760Z,13.69
2019-04-27T17:45:00.586Z,13.60
2019-04-27T17:47:30.125Z,13.54
2019-04-27T17:49:59.068Z,13.46
2019-04-27T17:52:27.841Z,13.36
2019-04-27T17:54:58.999Z,13.26
2019-04-27T17:57:30.235Z,13.11
2019-04-27T18:00:03.123Z,13.16
2019-04-27T18:02:29.418Z,13.14
2019-04-27T18:04:58.830Z,13.09
2019-04-27T18:07:30.116Z,13.02
2019-04-27T18:09:58.581Z,13.02
2019-04-27T18:12:28.549Z,13.04
2019-04-27T18:14:58.121Z,12.97
2019-04-27T18:17:28.752Z,12.97
2019-04-27T18:20:00.367Z,12.93
2019-04-27T18:22:36.507Z,12.70
2019-04-27T18:25:06.709Z,12.04
2019-04-27T18:27:59.978Z,11.46
2019-04-27T18:30:44.839Z,11.08
2019-04-27T18:33:18.470Z,10.63
2019-04-27T18:35:49.038Z,10.37
2019-04-27T18:38:18.106Z,10.15
2019-04-27T18:40:48.733Z,9.91
2019-04-27T18:43:18.710Z,9.82
2019-04-27T18:45:48.602Z,9.67
2019-04-27T18:48:25.021Z,9.43
2019-04-27T18:51:03.764Z,9.40
2019-04-27T18:53:32.990Z,9.25
2019-04-27T18:56:05.308Z,9.17
2019-04-27T18:58:32.431Z,9.09
2019-04-27T19:01:01.307Z,9.07
2019-04-27T19:03:31.734Z,8.99
2019-04-27T19:06:00.550Z,8.90
2019-04-27T19:08:29.269Z,8.91
2019-04-27T19:11:00.087Z,8.87
2019-04-27T19:13:28.654Z,8.80
2019-04-27T19:15:57.896Z,8.76
2019-04-27T19:18:28.102Z,8.75
2019-04-27T19:20:58.447Z,8.69
2019-04-27T19:23:28.598Z,8.61
2019-04-27T19:26:16.291Z,8.52
2019-04-27T19:28:59.086Z,8.44
2019-04-27T19:31:31.767Z,8.44
2019-04-27T19:34:00.617Z,8.37
2019-04-27T19:36:30.406Z,8.44
2019-04-27T19:38:59.484Z,8.37
2019-04-27T19:41:28.856Z,8.32
2019-04-27T19:43:59.740Z,8.35
2019-04-27T19:46:28.577Z,8.27
2019-04-27T19:48:59.275Z,8.22
2019-04-27T19:51:28.354Z,8.15
2019-04-27T19:53:58.144Z,8.11
2019-04-27T19:56:28.343Z,8.12
2019-04-27T19:58:59.434Z,8.01
2019-04-27T20:01:34.339Z,8.03
2019-04-27T20:04:08.642Z,8.02
2019-04-27T20:06:38.433Z,8.01
2019-04-27T20:09:19.111Z,7.98
2019-04-27T20:11:47.989Z,7.95
2019-04-27T20:14:16.890Z,7.88
2019-04-27T20:16:45.835Z,7.86
2019-04-27T20:19:14.742Z,7.84
2019-04-27T20:21:43.596Z,7.72
2019-04-27T20:24:12.754Z,7.76
2019-04-27T20:26:41.567Z,7.67
2019-04-27T20:29:11.806Z,7.63
2019-04-27T20:31:41.060Z,7.59
2019-04-27T20:34:09.986Z,7.55
2019-04-27T20:36:38.805Z,7.54
2019-04-27T20:39:07.740Z,7.51
2019-04-27T20:41:36.634Z,7.50
2019-04-27T20:44:05.989Z,7.45
2019-04-27T20:46:34.969Z,7.42
2019-04-27T20:49:15.471Z,7.34
2019-04-27T20:52:15.541Z,7.35
2019-04-27T20:54:44.383Z,7.30
2019-04-27T20:57:13.597Z,7.29
2019-04-27T20:59:42.821Z,7.34
2019-04-27T21:02:32.095Z,7.33
2019-04-27T21:05:12.610Z,7.27
2019-04-27T21:07:44.959Z,7.21
2019-04-27T21:10:13.840Z,7.15
2019-04-27T21:12:43.061Z,7.17
2019-04-27T21:15:12.993Z,7.09
2019-04-27T21:17:42.888Z,6.99
2019-04-27T21:20:13.267Z,6.91
2019-04-27T21:22:42.104Z,6.87
2019-04-27T21:25:11.839Z,6.81
2019-04-27T21:27:41.194Z,6.81
2019-04-27T21:30:11.579Z,6.83
2019-04-27T21:32:40.562Z,6.69
2019-04-27T21:35:11.013Z,6.63
2019-04-27T21:37:40.909Z,6.63
2019-04-27T21:40:17.908Z,6.60
2019-04-27T21:42:47.377Z,6.63
2019-04-27T21:45:16.819Z,6.59
2019-04-27T21:47:45.820Z,6.44
2019-04-27T21:50:15.902Z,6.50
2019-04-27T21:52:55.252Z,6.55
2019-04-27T21:55:24.251Z,6.57
2019-04-27T21:57:53.090Z,6.58
2019-04-27T22:00:46.263Z,6.61
2019-04-27T22:03:16.067Z,6.62
2019-04-27T22:05:44.895Z,6.63
2019-04-27T22:08:13.867Z,6.61
2019-04-27T22:10:43.198Z,6.62
2019-04-27T22:13:12.023Z,6.62
2019-04-27T22:15:41.626Z,6.61
2019-04-27T22:18:11.147Z,6.64
2019-04-27T22:20:42.391Z,6.56
2019-04-27T22:23:22.977Z,6.59
2019-04-27T22:25:54.145Z,6.55
2019-04-27T22:28:21.864Z,6.47
2019-04-27T22:30:50.666Z,6.50
2019-04-27T22:33:21.329Z,6.53
2019-04-27T22:35:51.657Z,6.47
2019-04-27T22:38:20.777Z,6.50
2019-04-27T22:40:59.147Z,6.50
2019-04-27T22:43:45.716Z,6.51
2019-04-27T22:46:17.189Z,6.53
2019-04-27T22:48:46.319Z,6.49
2019-04-27T22:51:15.530Z,6.50
2019-04-27T22:53:44.675Z,6.48
2019-04-27T22:56:18.662Z,6.43
2019-04-27T22:59:01.030Z,6.38
2019-04-27T23:01:46.393Z,6.31
2019-04-27T23:04:17.813Z,6.33
2019-04-27T23:06:46.670Z,6.35
2019-04-27T23:09:15.484Z,6.24
2019-04-27T23:11:44.346Z,6.23
2019-04-27T23:14:13.113Z,6.25
2019-04-27T23:16:43.666Z,6.22
2019-04-27T23:19:12.582Z,6.20
2019-04-27T23:21:41.433Z,6.17
2019-04-27T23:24:10.199Z,6.20
2019-04-27T23:26:39.005Z,6.18
2019-04-27T23:29:15.169Z,6.15
2019-04-27T23:31:52.730Z,6.15
2019-04-27T23:34:21.708Z,6.11
2019-04-27T23:36:51.797Z,6.09
2019-04-27T23:39:20.648Z,6.04
2019-04-27T23:41:49.509Z,6.06
2019-04-27T23:44:18.552Z,6.05
2019-04-27T23:46:47.626Z,5.97
2019-04-27T23:49:16.513Z,5.96
2019-04-27T23:51:50.427Z,6.00
2019-04-27T23:54:19.512Z,6.02
2019-04-27T23:56:48.633Z,5.94
2019-04-27T23:59:24.620Z,5.93
